Station: Elliott

  Atmospheric Gas Attenuation - ITU Rec 676-11   --------------- db/100km ---------------
Date Time Temp RH % AH g/m3 Dew Point Wind Direction Speed kph Gust kph Barometer mB Rainfall Since 9am 24GHz 47GHz 76GHz 122GHz 134GHz 241GHz
11 09:00 27.8 29 7.8 8.5 50 1013.3 0 17.3 21.1 30.9 80.8 73.9 254.2
10 09:00 31.8 39 13.03 16.4 4 1010.7 0 27.9 27.3 46.8 123.6 127.7 443.4
09 09:00 29 29 8.33 9.3 6 1009.8 0 18.3 21.5 32.0 83.9 78.2 269.4
08 09:00 30 30 9.1 10.7 22 1009.3 0 19.9 22.2 34.1 89.5 85.4 294.9
07 09:00 26.8 44 11.2 13.7 15 1011.5 0 24.4 26.1 43.0 113.1 113.5 392.9
06 09:00 28.1 42 11.49 14.2 11 1012 0 24.9 26.2 43.4 114.2 115.1 398.8
05 09:00 27.5 35 9.26 10.8 9 1011.6 0 20.3 23.1 35.8 93.9 90.0 310.8
04 09:00 27.8 46 12.37 15.2 4 1010.9 0 26.8 27.5 46.7 123.2 126.2 437.4
03 09:00 27.2 59 15.35 18.5 4 1011.2 0 33.1 32.5 58.9 155.7 165.9 576.1
02 09:00 28.1 43 11.76 14.4 41 1011.4 0 25.5 26.5 44.3 116.8 118.3 410.0
01 09:00 26 27 6.57 5.7 30 1010.7 0 14.8 19.9 27.5 71.8 62.3 213.3
31 09:00 29 32 9.19 10.6 37 1010.4 0 20.1 22.6 34.9 91.5 87.5 302.2
30 09:00 26.9 32 8.19 9.1 41 1011.2 0 18.1 21.8 32.4 84.9 78.8 271.3
29 09:00 28.4 37 10.29 12.6 44 1011.9 0 22.4 24.4 38.9 102.4 100.7 348.2
28 09:00 27.8 39 10.49 12.9 13 1011.6 0 22.9 24.8 39.9 105.0 103.7 358.8
27 09:00 29.5 45 13.28 16.6 7 1010.8 0 28.6 28.4 49.1 129.7 134.6 467.1
26 09:00 28.1 71 19.42 22.5 11 1010.3 0 41.5 39.2 75.8 200.7 221.5 769.6
25 09:00 26.5 83 20.78 23.4 19 1009.8 0.1 44.6 42.6 83.9 222.0 247.3 859.1
24 09:00 27.3 87 22.77 25 15 1008.5 2 48.7 46.0 92.7 245.4 276.1 959.5
23 09:00 29.4 73 21.43 24.2 4 1009.4 0 45.6 42.3 83.7 221.7 247.7 860.9
22 09:00 28 74 20.13 22.9 15 1009.1 0.1 43.1 40.5 79.1 209.5 232.3 807.2
21 09:00 26.4 79 19.67 22.6 6 1008 0.2 42.3 40.4 78.6 208.0 230.0 799.1
20 09:00 26.4 45 11.2 13.8 9 1008.3 15 24.4 26.1 43.0 113.4 113.8 393.9
19 09:00 27.8 60 16.14 19.5 30 1009.3 0.4 34.7 33.5 61.7 163.0 175.1 608.3
18 09:00 23 74 15.21 18.1 15 1011.3 0.6 33.1 33.9 61.6 162.7 173.3 601.3
17 09:00 28.5 42 11.74 14.5 33 1011.8 0.2 25.4 26.4 44.1 116.0 117.5 407.2
16 09:00 23 57 11.71 14.2 30 1014.3 0 25.7 28.1 47.2 124.3 125.9 435.8
15 09:00 22.7 85 17.17 20.1 19 1013.1 9 37.3 37.7 70.8 187.2 203.3 705.6
14 09:00 26 84 20.45 23.1 6 1011.9 10 43.9 42.3 83.0 219.6 244.0 847.9
13 09:00 30.1 62 18.91 22 11 1012.9 0 40.2 37.5 71.8 189.9 208.7 725.5
12 09:00 28.5 70 19.57 22.6 15 1013.6 0 41.8 39.5 76.3 201.9 223.0 775.1
11 09:00 28 77 20.94 23.7 15 1013.7 0.2 44.7 42.3 83.2 220.3 245.4 853.0
10 09:00 28.2 75 20.62 23.4 15 1012.7 0 44.0 41.5 81.4 215.6 239.7 833.0
09 09:00 28.9 72 20.57 23.5 15 1010.8 4 43.9 41.0 80.3 212.7 236.4 821.7
08 09:00 30.5 59 18.38 21.6 19 1007.7 0 39.1 36.2 68.8 182.1 199.4 693.2
07 09:00 30.1 59 17.99 21.2 9 1006.7 0 38.4 35.7 67.4 178.4 194.8 677.2
06 09:00 29 61 17.52 20.7 7 1007.8 0 37.5 35.4 66.4 175.7 191.2 664.4
05 09:00 32 29 9.79 11.8 11 1008.8 0 21.2 22.6 35.5 93.3 90.6 313.4
04 09:00 30.8 63 19.95 23 15 1007.7 0.4 42.4 38.8 75.4 199.6 220.9 768.2
03 09:00 30.5 57 17.76 21.1 19 1008 0 37.8 35.2 66.2 175.1 190.8 663.3
02 09:00 28.3 54 14.93 18.1 19 1008.3 0 32.1 31.3 56.3 148.6 157.7 547.4
01 09:00 29.5 32 9.45 11.1 11 1008.4 0 20.6 22.8 35.4 93.1 89.7 309.8
28 09:00 29.5 26 7.68 8.3 9 1008.5 0 17.0 20.5 29.7 77.8 70.8 243.7
27 09:00 27.8 30 8.07 8.7 7 1007 0 17.8 21.3 31.5 82.6 76.4 262.9
26 09:00 25.6 31 7.38 7.6 22 1006.9 0 16.5 20.9 30.1 78.8 70.9 243.7
25 09:00 27.7 31 8.29 9.4 19 1008.4 0 18.3 21.7 32.3 84.8 78.9 271.9
24 09:00 27.6 70 18.62 21.6 11 1008.3 0.8 39.9 37.9 72.6 192.0 210.8 732.3
23 09:00 27.6 80 21.28 23.8 15 1009.8 0.4 45.5 43.0 85.1 225.2 251.4 873.8
22 09:00 25.9 91 22.03 24.3 11 1008 0.4 47.4 45.3 90.6 240.0 269.1 935.0
21 09:00 27.3 79 20.67 23.4 7 1007.1 0 44.3 41.8 82.3 217.9 242.5 842.5
20 09:00 27.6 73 19.42 22.3 13 1007.5 0 41.6 39.3 76.2 201.6 222.5 773.2
19 09:00 26 80 19.48 22.3 22 1006.1 1 41.9 40.2 78.0 206.4 228.0 792.2
18 09:00 28.7 69 19.5 22.5 19 1005.9 0 41.7 38.9 75.3 199.4 220.2 765.4
17 09:00 29.5 73 21.55 24.2 11 1005.8 0.1 45.9 42.3 83.9 222.3 248.6 864.1
16 09:00 30.4 72 22.32 24.9 11 1006.2 0.1 47.4 43.3 86.6 229.4 257.4 895.0
15 09:00 29.1 80 23.11 25.3 15 1006.6 0.6 49.2 45.6 92.0 243.6 274.6 954.4
14 09:00 29 74 21.26 24 4 1007 0 45.3 42.1 83.2 220.3 246.0 855.0
13 09:00 27.6 85 22.61 24.9 7 1007.8 0.2 48.4 45.5 91.4 242.1 272.3 946.2
12 09:00 30 71 21.53 24.3 19 1006.7 0.4 45.8 42.1 83.4 220.8 246.8 857.9
11 09:00 28.4 79 21.96 24.4 15 1007.5 0 46.9 43.8 87.3 231.1 259.0 900.1
10 09:00 28.3 75 20.74 23.5 6 1006.4 0 44.3 41.4 81.5 215.8 240.2 834.8
09 09:00 27.6 79 21.02 23.7 15 1003.8 0.4 45.0 42.2 83.4 220.9 246.4 856.2
08 09:00 23.1 98 20.26 22.8 15 997.2 59 44.0 42.7 84.3 223.3 248.3 862.1
07 09:00 25.8 83 19.98 22.7 13 1002.7 38 43.0 41.1 80.3 212.7 235.8 819.3
06 09:00 26.1 90 22.03 24.4 4 1002.7 5 47.4 44.9 90.0 238.4 267.5 929.3
05 09:00 25 94 21.64 24 15 1004.7 0.2 46.7 44.8 89.5 237.1 265.4 922.0
04 09:00 29.2 72 20.91 23.7 15 1003.9 10 44.6 41.2 81.2 214.9 239.5 832.5
03 09:00 31 62 19.85 23 15 1004.6 8 42.2 38.4 74.6 197.4 218.5 759.6
02 09:00 26.7 79 20 22.7 6 1006.1 0.1 42.9 40.8 79.7 211.0 233.9 812.5
01 09:00 29.1 73 21.09 23.8 7 1006.3 0.8 45.0 41.7 82.3 217.8 242.9 844.5
31 09:00 29.2 73 21.2 23.9 15 1006.8 2 45.2 41.9 82.7 219.0 244.4 849.5
30 09:00 29.8 68 20.4 23.4 15 1005 1 43.5 40.0 78.2 207.2 230.1 800.0
29 09:00 29.4 70 20.55 23.5 6 1004.5 0 43.8 40.4 79.3 210.0 233.5 811.8
28 09:00 30 69 20.93 23.8 4 1003.6 0 44.6 40.8 80.4 212.9 237.2 824.6
27 09:00 30.8 66 20.9 23.8 7 1003.1 0 44.4 40.4 79.4 210.2 234.2 814.2
26 09:00 30.1 67 20.43 23.5 6 1003 0 43.5 39.8 77.9 206.4 229.3 797.3
25 09:00 29.1 74 21.37 24.1 6 1004.5 3 45.6 42.1 83.5 221.0 246.9 858.3
24 09:00 28.9 76 21.71 24.2 13 1006.6 9 46.3 43.0 85.4 226.2 253.2 880.1
23 09:00 28.5 70 19.57 22.6 11 1007.5 0.6 41.8 39.2 75.9 201.0 222.1 771.9
22 09:00 29.5 64 18.89 22.1 11 1009.4 0.1 40.3 37.6 72.0 190.6 209.6 728.5
21 09:00 29.1 70 20.22 23.1 15 1010.5 0 43.1 40.2 78.5 207.8 230.4 801.0
20 09:00 29.9 59 17.8 21.1 15 1009.1 0 38.0 35.5 66.9 177.1 193.0 670.9
19 09:00 32 35 11.82 15 15 1008.6 0 25.4 25.4 42.3 111.6 113.1 392.2
18 09:00 28.9 21 6 4.8 33 1010 0 13.5 18.5 24.8 64.7 54.4 186.0
17 09:00 31.2 18 5.82 4.3 37 1007 0 13.1 17.8 23.6 61.4 51.1 174.6
16 09:00 32.2 58 19.8 23.1 7 1005.8 0 41.9 37.9 73.3 194.0 214.5 746.0
15 09:00 30.8 64 20.27 23.4 11 1006.6 0 43.1 39.4 76.7 203.2 225.4 783.8
14 09:00 29.8 60 18 21.2 19 1008.8 0.4 38.4 35.9 67.9 179.5 196.0 681.4
13 09:00 32 57 19.25 22.5 7 1007.7 0.4 40.8 37.1 71.2 188.4 207.6 721.9
12 09:00 30.8 63 19.95 23.1 6 1007.5 0 42.4 38.8 75.4 199.5 220.9 768.1
11 09:00 30.4 56 17.36 20.8 6 1007.7 0 37.0 34.5 64.6 170.8 185.5 644.9
10 09:00 31.8 47 15.7 19.3 6 1008.1 0 33.4 31.3 56.8 150.1 160.5 557.7
09 09:00 31.5 31 10.19 12.3 11 1007.5 0 22.1 23.3 37.0 97.3 95.4 330.2
08 09:00 31.2 25 8.09 9.2 37 1008.8 0 17.7 20.6 30.4 79.6 73.6 253.5
07 09:00 29.1 34 9.82 11.7 15 1008.4 0 21.4 23.4 36.8 96.9 94.2 325.7
06 09:00 28.2 44 12.1 14.9 15 1008.8 1 26.2 26.9 45.4 119.7 122.0 423.0
05 09:00 29.1 67 19.35 22.5 7 1005.2 0 41.3 38.4 74.2 196.4 216.8 753.4
04 09:00 28.7 71 20.06 22.9 7 1004.7 0.8 42.9 39.9 77.8 206.0 228.4 793.7
03 09:00 29.7 78 23.28 25.5 0 1004 0 49.5 45.5 91.9 243.4 274.6 954.6
02 09:00 31.2 69 22.33 25 6 1003.6 2 47.4 42.8 85.6 226.6 254.4 884.6

Last Refresh: 11-Apr-2021 23:16:46

Bureau of Meteorology